Miranda, Brazil
Current Conditions -  °F | °C
As of 5:00 PM on Sunday 25 Jan 2015 (Local Time) from SBCG Reporting Station
Scattered Clouds Scattered Clouds  
Wind Chill: 81°   Ceiling: Unl
Heat Index: 83°   Visibility: 6mi
Dew Point: 68°   Wind: 9mph
Humidity: 65%   Direction: 300°WNW
Pressure: 29.88"   Gusts: NA
Location:  20.24°S, 56.38°W
Report Text: SBCG 252000Z 30008KT 9999 SCT035 FEW040TCU SCT100 27/20 Q1012
Loading
Personal Weather Stations






























Interactive Weather Map New forecast layout! Learn more

10-Day Weather Forecast

Advertisements
Track Severe Weather on mobile